Time;durP1;ratioP1;P1;durP2;ratioP2;P2;SDS_P1;SDS_P2;PMS_P1;PMS_P2;Temp;Humidity;BMP_temperature;BMP_pressure;BME280_temperature;BME280_humidity;BME280_pressure;Samples;Min_cycle;Max_cycle;Signal;HPM_P1;HPM_P2
2022/08/30 00:01:04;;;;;;;1.67;1.30;;;16.80;97.00;;;;;;5077551;28;20039;-71
2022/08/30 00:03:35;;;;;;;;;;;16.80;97.00;;;;;;5078041;28;20085;-71
2022/08/30 00:06:02;;;;;;;1.27;1.17;;;16.80;97.30;;;;;;5069575;28;20689;-71
2022/08/30 00:08:28;;;;;;;1.30;1.20;;;16.70;97.10;;;;;;5079943;28;20139;-71
2022/08/30 00:10:54;;;;;;;1.25;1.15;;;16.70;97.20;;;;;;5079496;28;20139;-71
2022/08/30 00:13:21;;;;;;;2.00;1.10;;;16.70;97.20;;;;;;5076865;28;20071;-69
2022/08/30 00:15:47;;;;;;;1.63;1.52;;;16.70;97.30;;;;;;5077751;28;20031;-72
2022/08/30 00:18:14;;;;;;;2.80;1.60;;;16.60;97.30;;;;;;5074954;28;20442;-71
2022/08/30 00:20:40;;;;;;;2.45;1.80;;;16.60;97.20;;;;;;5074819;28;20024;-72
2022/08/30 00:23:06;;;;;;;2.28;1.45;;;16.60;97.50;;;;;;5070652;28;20488;-71
2022/08/30 00:25:32;;;;;;;2.55;1.40;;;16.60;97.20;;;;;;5073111;28;20026;-70
2022/08/30 00:27:58;;;;;;;2.05;1.63;;;16.60;97.10;;;;;;5076341;28;20031;-71
2022/08/30 00:30:24;;;;;;;1.85;1.52;;;16.50;97.00;;;;;;5079477;28;20031;-71
2022/08/30 00:32:50;;;;;;;3.13;1.48;;;16.50;96.90;;;;;;5078819;28;20028;-72
2022/08/30 00:35:19;;;;;;;2.05;1.60;;;16.50;97.00;;;;;;5076128;28;20045;-71
2022/08/30 00:37:46;;;;;;;1.98;1.73;;;16.40;97.10;;;;;;5076062;28;20028;-71
2022/08/30 00:40:14;;;;;;;1.58;1.35;;;16.40;97.10;;;;;;5074562;28;20474;-71
2022/08/30 00:42:41;;;;;;;2.70;1.75;;;16.40;97.20;;;;;;5073370;28;20043;-71
2022/08/30 00:45:21;;;;;;;4.05;1.92;;;16.40;97.30;;;;;;5077939;28;20036;-71
2022/08/30 00:47:46;;;;;;;1.92;1.75;;;16.40;97.40;;;;;;5080558;28;20181;-71
2022/08/30 00:50:15;;;;;;;3.53;1.90;;;16.50;97.60;;;;;;5078258;28;20531;-71
2022/08/30 00:52:45;;;;;;;2.75;2.13;;;16.40;97.60;;;;;;5077931;28;20086;-71
2022/08/30 00:55:13;;;;;;;1.92;1.73;;;16.50;97.60;;;;;;5074948;28;20494;-70
2022/08/30 00:57:41;;;;;;;2.05;1.85;;;16.50;97.60;;;;;;5076320;28;20059;-71
2022/08/30 01:00:08;;;;;;;2.03;1.83;;;16.50;97.70;;;;;;5071736;28;20071;-70
2022/08/30 01:02:34;;;;;;;4.75;2.08;;;16.50;97.80;;;;;;5073106;28;20023;-70
2022/08/30 01:05:02;;;;;;;3.03;2.10;;;16.50;97.70;;;;;;5076799;28;20040;-70
2022/08/30 01:07:27;;;;;;;2.90;2.20;;;16.40;97.70;;;;;;5078976;28;20039;-71
2022/08/30 01:09:54;;;;;;;1.98;1.88;;;16.40;97.70;;;;;;5078877;28;20043;-70
2022/08/30 01:12:20;;;;;;;2.22;1.75;;;16.40;97.70;;;;;;5075870;28;20025;-71
2022/08/30 01:14:46;;;;;;;2.08;1.67;;;16.40;97.70;;;;;;5076731;28;20085;-70
2022/08/30 01:17:13;;;;;;;1.83;1.73;;;16.40;97.60;;;;;;5073035;28;20112;-70
2022/08/30 01:20:13;;;;;;;2.20;2.00;;;16.40;97.70;;;;;;5074345;28;20036;-70
2022/08/30 01:22:48;;;;;;;5.13;1.45;;;16.50;97.70;;;;;;5058008;28;20044;-70
2022/08/30 01:25:18;;;;;;;2.00;1.80;;;16.40;97.50;;;;;;5079135;28;20067;-70
2022/08/30 01:27:50;;;;;;;1.90;1.80;;;16.40;97.60;;;;;;5079243;28;20034;-70
2022/08/30 01:30:17;;;;;;;2.13;1.77;;;16.40;97.70;;;;;;5076865;28;20025;-70
2022/08/30 01:32:46;;;;;;;2.95;1.90;;;16.50;97.70;;;;;;5076926;28;20022;-70
2022/08/30 01:35:14;;;;;;;2.85;1.90;;;16.50;97.60;;;;;;5073650;28;20045;-70
2022/08/30 01:37:40;;;;;;;2.20;2.00;;;16.50;97.60;;;;;;5073872;28;20032;-71
2022/08/30 01:40:08;;;;;;;4.05;2.20;;;16.50;97.60;;;;;;5071766;28;20041;-70
2022/08/30 01:42:33;;;;;;;2.38;2.15;;;16.50;97.50;;;;;;5080109;28;20024;-68
2022/08/30 01:44:59;;;;;;;2.10;1.90;;;16.50;97.50;;;;;;5079083;28;20028;-69
2022/08/30 01:47:26;;;;;;;2.80;2.10;;;16.50;97.50;;;;;;5077965;28;20115;-70
2022/08/30 01:49:52;;;;;;;2.85;2.40;;;16.50;97.50;;;;;;5077239;28;20506;-69
2022/08/30 01:52:18;;;;;;;3.17;2.72;;;16.50;97.50;;;;;;5074094;28;20044;-70
2022/08/30 01:54:45;;;;;;;2.63;2.33;;;16.50;97.50;;;;;;5073054;28;20035;-71
2022/08/30 01:57:15;;;;;;;3.97;2.17;;;16.50;97.50;;;;;;5074487;28;20029;-70
2022/08/30 01:59:46;;;;;;;2.38;2.17;;;16.50;97.60;;;;;;5073582;28;20028;-70
2022/08/30 02:02:16;;;;;;;2.75;2.17;;;16.50;97.60;;;;;;5079733;28;20040;-70
2022/08/30 02:04:42;;;;;;;3.63;2.40;;;16.50;97.60;;;;;;5078876;28;20110;-70
2022/08/30 02:07:09;;;;;;;2.42;2.22;;;16.50;97.50;;;;;;5076129;28;20202;-70
2022/08/30 02:09:36;;;;;;;2.33;2.13;;;16.50;97.50;;;;;;5076936;28;20036;-71
2022/08/30 02:12:05;;;;;;;2.53;2.25;;;16.40;97.50;;;;;;5073535;28;20023;-70
2022/08/30 02:14:30;;;;;;;6.20;2.60;;;16.40;97.50;;;;;;5073458;28;20748;-70
2022/08/30 02:16:56;;;;;;;3.58;2.38;;;16.40;97.50;;;;;;5071186;28;20033;-70
2022/08/30 02:19:22;;;;;;;2.38;2.17;;;16.40;97.40;;;;;;5075337;28;20032;-70
2022/08/30 02:21:48;;;;;;;2.40;2.20;;;16.40;97.50;;;;;;5079120;28;20181;-70
2022/08/30 02:24:14;;;;;;;2.92;2.50;;;16.40;97.50;;;;;;5077196;28;20055;-70
2022/08/30 02:26:41;;;;;;;2.58;2.38;;;16.40;97.60;;;;;;5077105;28;20675;-70
2022/08/30 02:29:08;;;;;;;3.65;2.65;;;16.40;97.60;;;;;;5074205;28;20039;-70
2022/08/30 02:31:34;;;;;;;3.35;2.80;;;16.40;97.60;;;;;;5074902;28;20551;-70
2022/08/30 02:34:00;;;;;;;3.50;2.38;;;16.40;97.50;;;;;;5071788;28;20768;-70
2022/08/30 02:36:26;;;;;;;3.00;2.67;;;16.30;97.50;;;;;;5071897;28;20046;-71
2022/08/30 02:38:52;;;;;;;3.47;3.10;;;16.30;97.70;;;;;;5077092;28;20118;-70
2022/08/30 02:41:19;;;;;;;3.47;2.85;;;16.30;97.80;;;;;;5078370;28;20036;-69
2022/08/30 02:43:45;;;;;;;4.57;3.15;;;16.30;97.80;;;;;;5076774;28;20039;-66
2022/08/30 02:46:11;;;;;;;4.65;3.35;;;16.30;97.80;;;;;;5074368;28;20025;-70
2022/08/30 02:48:37;;;;;;;3.95;3.47;;;16.30;97.80;;;;;;5075584;28;20069;-70
2022/08/30 02:51:08;;;;;;;3.88;3.33;;;16.20;97.80;;;;;;5074455;28;20067;-70
2022/08/30 02:53:35;;;;;;;4.32;3.58;;;16.20;97.90;;;;;;5076653;28;20853;-70
2022/08/30 02:56:01;;;;;;;3.78;3.40;;;16.20;97.90;;;;;;5072197;28;20039;-70
2022/08/30 02:58:27;;;;;;;4.43;3.60;;;16.20;97.90;;;;;;5081266;28;20028;-71
2022/08/30 03:00:53;;;;;;;3.80;3.33;;;16.20;97.90;;;;;;5079840;28;20063;-70
2022/08/30 03:03:19;;;;;;;3.80;3.42;;;16.10;97.90;;;;;;5078795;28;20037;-70
2022/08/30 03:05:44;;;;;;;3.90;3.50;;;16.20;97.90;;;;;;5079878;28;20023;-71
2022/08/30 03:08:10;;;;;;;4.80;3.63;;;16.20;97.90;;;;;;5079257;28;20028;-70
2022/08/30 03:10:37;;;;;;;6.95;4.20;;;16.10;97.80;;;;;;5078015;28;20043;-70
2022/08/30 03:13:05;;;;;;;5.03;3.90;;;16.20;97.80;;;;;;5072761;28;20951;-71
2022/08/30 03:15:31;;;;;;;9.50;4.55;;;16.10;97.70;;;;;;5079065;28;20110;-71
2022/08/30 03:17:58;;;;;;;4.00;3.60;;;16.10;97.80;;;;;;5078746;28;20651;-70
2022/08/30 03:20:24;;;;;;;4.22;3.67;;;16.00;97.70;;;;;;5080273;28;20082;-70
2022/08/30 03:22:51;;;;;;;5.38;3.78;;;16.00;97.70;;;;;;5077210;28;20059;-70
2022/08/30 03:25:19;;;;;;;8.02;4.35;;;16.00;97.70;;;;;;5076365;28;20514;-70
2022/08/30 03:27:46;;;;;;;4.97;4.15;;;16.00;97.70;;;;;;5076670;28;20025;-71
2022/08/30 03:30:12;;;;;;;4.68;4.20;;;16.00;97.70;;;;;;5073503;28;20016;-70
2022/08/30 03:32:39;;;;;;;4.68;3.97;;;16.00;97.70;;;;;;5074883;28;20055;-70
2022/08/30 03:35:06;;;;;;;6.32;4.70;;;15.90;97.70;;;;;;5079739;28;20146;-70
2022/08/30 03:37:32;;;;;;;4.80;3.85;;;15.90;97.70;;;;;;5077956;28;20435;-71
2022/08/30 03:39:58;;;;;;;5.03;4.53;;;15.90;97.70;;;;;;5079812;28;20066;-70
2022/08/30 03:42:23;;;;;;;4.28;3.88;;;15.90;97.70;;;;;;5077394;28;20032;-70
2022/08/30 03:44:49;;;;;;;6.43;4.22;;;15.80;97.70;;;;;;5075690;28;20492;-70
2022/08/30 03:47:15;;;;;;;5.82;4.00;;;15.80;97.80;;;;;;5074531;28;20028;-71
2022/08/30 03:49:41;;;;;;;5.30;4.68;;;15.80;97.80;;;;;;5075773;28;20032;-70
2022/08/30 03:52:07;;;;;;;6.25;4.70;;;15.80;97.80;;;;;;5070912;28;20024;-71
2022/08/30 03:54:33;;;;;;;5.28;4.38;;;15.80;97.70;;;;;;5082022;28;20059;-70
2022/08/30 03:56:59;;;;;;;5.65;4.25;;;15.80;97.60;;;;;;5081095;28;20271;-69
2022/08/30 03:59:24;;;;;;;6.72;4.95;;;15.80;97.60;;;;;;5077829;28;20538;-70
2022/08/30 04:01:50;;;;;;;4.20;3.80;;;15.70;97.70;;;;;;5074474;28;20061;-70
2022/08/30 04:04:16;;;;;;;6.30;4.43;;;15.80;97.80;;;;;;5075227;28;20620;-70
2022/08/30 04:06:42;;;;;;;4.65;3.60;;;15.70;98.10;;;;;;5075293;28;20058;-70
2022/08/30 04:09:08;;;;;;;4.55;3.80;;;15.70;97.80;;;;;;5072178;28;20033;-70
2022/08/30 04:11:34;;;;;;;4.90;4.28;;;15.70;97.80;;;;;;5074597;28;20024;-70
2022/08/30 04:14:00;;;;;;;5.30;3.80;;;15.70;97.70;;;;;;5081891;28;20035;-70
2022/08/30 04:16:26;;;;;;;5.55;4.53;;;15.70;97.80;;;;;;5080034;28;20713;-70
2022/08/30 04:18:52;;;;;;;5.43;4.53;;;15.70;97.80;;;;;;5079764;28;20039;-70
2022/08/30 04:21:18;;;;;;;5.68;4.10;;;15.70;97.70;;;;;;5076819;28;20036;-69
2022/08/30 04:23:44;;;;;;;5.07;4.50;;;15.70;97.70;;;;;;5074044;28;20048;-70
2022/08/30 04:26:10;;;;;;;4.32;3.92;;;15.70;97.80;;;;;;5071984;28;20047;-70
2022/08/30 04:28:36;;;;;;;4.10;3.70;;;15.70;97.80;;;;;;5073887;28;20783;-70
2022/08/30 04:31:13;;;;;;;6.38;5.03;;;15.70;97.90;;;;;;5073390;28;20130;-70
2022/08/30 04:33:40;;;;;;;5.65;4.57;;;15.80;98.00;;;;;;5073241;28;20081;-70
2022/08/30 04:36:07;;;;;;;5.20;4.05;;;15.80;98.00;;;;;;5075415;28;20153;-70
2022/08/30 04:38:34;;;;;;;4.95;4.15;;;15.80;98.10;;;;;;5079364;28;20136;-70
2022/08/30 04:41:00;;;;;;;4.20;3.80;;;15.90;98.00;;;;;;5074427;28;20068;-70
2022/08/30 04:43:26;;;;;;;8.85;4.78;;;15.90;98.00;;;;;;5073972;28;20160;-70
2022/08/30 04:45:53;;;;;;;4.07;3.60;;;15.90;98.10;;;;;;5071902;28;20820;-70
2022/08/30 04:48:21;;;;;;;6.72;4.57;;;15.90;98.00;;;;;;5073091;28;20037;-70
2022/08/30 04:50:47;;;;;;;4.68;3.85;;;16.00;98.00;;;;;;5077856;28;20032;-70
2022/08/30 04:53:14;;;;;;;6.10;4.50;;;16.00;98.00;;;;;;5079639;28;20039;-70
2022/08/30 04:55:42;;;;;;;5.90;4.70;;;16.00;98.10;;;;;;5079619;28;20761;-70
2022/08/30 04:58:11;;;;;;;5.57;4.97;;;16.10;98.00;;;;;;5076617;28;20043;-70
2022/08/30 05:00:37;;;;;;;5.75;4.80;;;16.10;98.00;;;;;;5077321;28;20020;-70
2022/08/30 05:03:03;;;;;;;7.32;4.57;;;16.20;98.00;;;;;;5073392;28;20089;-70
2022/08/30 05:05:38;;;;;;;5.93;4.68;;;16.20;98.00;;;;;;5074655;28;20020;-70
2022/08/30 05:08:06;;;;;;;6.60;4.47;;;16.20;98.10;;;;;;5071047;28;20032;-70
2022/08/30 05:10:33;;;;;;;6.97;5.90;;;16.30;98.20;;;;;;5077739;28;20426;-70
2022/08/30 05:12:59;;;;;;;7.53;5.50;;;16.40;98.30;;;;;;5079178;28;20028;-70
2022/08/30 05:15:25;;;;;;;6.13;5.10;;;16.50;98.30;;;;;;5077999;28;20025;-70
2022/08/30 05:17:50;;;;;;;6.93;4.80;;;16.60;98.50;;;;;;5077245;28;20492;-70
2022/08/30 05:20:16;;;;;;;6.22;5.07;;;16.60;98.20;;;;;;5074286;28;20090;-70
2022/08/30 05:22:49;;;;;;;8.32;5.53;;;16.70;98.10;;;;;;5074447;28;20024;-70
2022/08/30 05:25:17;;;;;;;6.45;5.38;;;16.70;98.00;;;;;;5071528;28;20037;-70
2022/08/30 05:27:43;;;;;;;6.07;5.03;;;16.80;98.00;;;;;;5076976;28;20028;-70
2022/08/30 05:30:10;;;;;;;5.78;5.07;;;16.80;98.00;;;;;;5078044;28;20028;-70
2022/08/30 05:32:36;;;;;;;5.97;4.82;;;16.90;98.20;;;;;;5077921;28;20101;-70
2022/08/30 05:35:05;;;;;;;5.00;4.30;;;16.90;98.20;;;;;;5075108;28;20028;-70
2022/08/30 05:37:31;;;;;;;6.43;4.85;;;17.00;98.30;;;;;;5073837;28;20036;-70
2022/08/30 05:39:58;;;;;;;6.93;5.15;;;17.00;98.40;;;;;;5074185;28;20032;-70
2022/08/30 05:42:23;;;;;;;11.45;5.78;;;17.10;98.30;;;;;;5071643;28;20044;-70
2022/08/30 05:44:51;;;;;;;5.63;5.03;;;17.20;98.20;;;;;;5072838;28;20035;-70
2022/08/30 05:47:17;;;;;;;13.73;5.55;;;17.30;98.00;;;;;;5079585;28;20078;-70
2022/08/30 05:49:43;;;;;;;4.75;4.30;;;17.30;97.90;;;;;;5079029;28;20027;-71
2022/08/30 05:52:09;;;;;;;4.53;4.10;;;17.30;97.80;;;;;;5075780;28;20476;-70
2022/08/30 05:54:35;;;;;;;6.25;4.70;;;17.30;98.00;;;;;;5076349;28;20028;-70
2022/08/30 05:57:00;;;;;;;15.73;5.80;;;17.40;98.10;;;;;;5071818;28;20063;-70
2022/08/30 05:59:26;;;;;;;5.85;5.30;;;17.40;98.10;;;;;;5073977;28;20035;-70
2022/08/30 06:01:55;;;;;;;15.65;5.32;;;17.40;98.00;;;;;;5070878;28;20036;-69
2022/08/30 06:04:21;;;;;;;6.75;4.47;;;17.50;97.70;;;;;;5070341;28;20036;-69
2022/08/30 06:06:47;;;;;;;5.97;5.15;;;17.50;97.80;;;;;;5078691;28;20028;-70
2022/08/30 06:09:13;;;;;;;6.63;5.35;;;17.50;98.00;;;;;;5077143;28;20036;-69
2022/08/30 06:11:40;;;;;;;5.45;4.88;;;17.60;98.00;;;;;;5077121;28;20058;-70
2022/08/30 06:14:06;;;;;;;6.45;5.82;;;17.70;98.00;;;;;;5073819;28;20547;-69
2022/08/30 06:16:32;;;;;;;5.85;5.25;;;17.80;98.00;;;;;;5074745;28;20114;-69
2022/08/30 06:18:58;;;;;;;5.35;4.82;;;17.90;98.00;;;;;;5071505;28;20122;-69
2022/08/30 06:21:28;;;;;;;6.45;5.78;;;17.90;97.90;;;;;;5071496;28;20118;-69
2022/08/30 06:23:56;;;;;;;5.97;5.38;;;17.90;97.90;;;;;;5070635;28;20043;-69
2022/08/30 06:26:22;;;;;;;6.47;5.78;;;18.00;97.90;;;;;;5082559;28;20123;-69
2022/08/30 06:28:48;;;;;;;7.25;5.97;;;18.00;97.70;;;;;;5082578;28;20082;-69
2022/08/30 06:31:17;;;;;;;7.47;6.30;;;18.00;97.70;;;;;;5079645;28;20563;-71
2022/08/30 06:33:43;;;;;;;6.00;5.25;;;18.10;97.60;;;;;;5082293;28;20680;-71
2022/08/30 06:36:12;;;;;;;6.20;5.50;;;18.10;97.50;;;;;;5076284;28;20037;-71
2022/08/30 06:38:39;;;;;;;6.50;5.78;;;18.10;97.50;;;;;;5079810;28;20035;-69
2022/08/30 06:41:09;;;;;;;7.10;6.13;;;18.10;97.60;;;;;;5072429;28;20193;-71
2022/08/30 06:43:36;;;;;;;6.88;5.82;;;18.20;97.60;;;;;;5075531;28;20028;-70
2022/08/30 06:46:03;;;;;;;7.40;5.05;;;18.20;97.30;;;;;;5081868;28;20043;-71
2022/08/30 06:48:29;;;;;;;5.75;5.15;;;18.20;97.30;;;;;;5081015;28;20016;-71
2022/08/30 06:50:54;;;;;;;8.00;6.53;;;18.20;97.40;;;;;;5078113;28;20043;-71
2022/08/30 06:53:20;;;;;;;9.10;6.80;;;18.20;97.60;;;;;;5075728;28;20021;-71
2022/08/30 06:56:05;;;;;;;6.55;4.57;;;18.30;97.70;;;;;;5076228;28;20028;-71
2022/08/30 06:58:32;;;;;;;6.43;5.72;;;18.30;97.70;;;;;;5075275;28;20026;-71
2022/08/30 07:00:57;;;;;;;9.18;6.70;;;18.40;97.80;;;;;;5071700;28;20028;-69
2022/08/30 07:03:26;;;;;;;6.85;5.78;;;18.40;97.80;;;;;;5081655;28;20044;-69
2022/08/30 07:05:53;;;;;;;10.10;6.38;;;18.50;97.30;;;;;;5081763;28;20032;-71
2022/08/30 07:08:19;;;;;;;7.68;6.20;;;18.60;97.30;;;;;;5079024;28;20035;-71
2022/08/30 07:10:45;;;;;;;7.93;5.50;;;18.60;97.10;;;;;;5079243;28;20032;-71
2022/08/30 07:13:11;;;;;;;8.52;5.50;;;18.70;97.00;;;;;;5073873;28;20024;-71
2022/08/30 07:15:40;;;;;;;6.13;5.32;;;18.80;97.30;;;;;;5081681;28;20081;-71
2022/08/30 07:20:50;;;;;;;9.48;6.30;;;18.90;97.20;;;;;;5077228;28;20075;-71
2022/08/30 07:23:15;;;;;;;7.30;5.93;;;19.00;97.00;;;;;;5080527;28;20070;-71
2022/08/30 07:25:41;;;;;;;6.07;5.47;;;19.10;96.20;;;;;;5081018;28;20032;-70
2022/08/30 07:28:08;;;;;;;6.63;5.78;;;19.10;96.00;;;;;;5077448;28;20036;-71
2022/08/30 07:30:35;;;;;;;8.27;6.10;;;19.10;96.30;;;;;;5078507;28;20039;-71
2022/08/30 07:33:01;;;;;;;6.18;5.55;;;19.10;96.50;;;;;;5074571;28;20077;-70
2022/08/30 07:35:27;;;;;;;9.98;6.05;;;19.10;96.60;;;;;;5073239;28;20039;-70
2022/08/30 07:37:53;;;;;;;7.15;6.00;;;19.20;96.70;;;;;;5072167;28;20036;-70
2022/08/30 07:40:19;;;;;;;7.45;6.35;;;19.30;96.60;;;;;;5080825;28;20039;-70
2022/08/30 07:42:45;;;;;;;7.07;5.75;;;19.40;96.50;;;;;;5082201;28;20153;-70
2022/08/30 07:45:11;;;;;;;6.65;5.95;;;19.60;96.30;;;;;;5079545;28;20131;-70
2022/08/30 07:47:37;;;;;;;8.70;6.82;;;19.70;96.00;;;;;;5079689;28;20028;-70
2022/08/30 07:50:05;;;;;;;6.55;5.60;;;19.90;95.40;;;;;;5076544;28;20646;-70
2022/08/30 07:52:31;;;;;;;6.75;5.90;;;20.10;95.10;;;;;;5076394;28;20106;-70
2022/08/30 07:54:58;;;;;;;5.80;5.20;;;20.20;94.60;;;;;;5074102;28;20024;-71
2022/08/30 07:57:24;;;;;;;5.82;5.20;;;20.30;94.50;;;;;;5073944;28;20056;-71
2022/08/30 07:59:50;;;;;;;5.88;4.55;;;20.50;93.90;;;;;;5078590;28;20425;-70
2022/08/30 08:02:17;;;;;;;5.03;4.53;;;20.70;93.50;;;;;;5078606;28;20047;-70
2022/08/30 08:04:42;;;;;;;4.45;4.05;;;21.00;93.10;;;;;;5080647;28;20127;-70
2022/08/30 08:07:08;;;;;;;3.92;3.53;;;21.20;92.00;;;;;;5076793;28;20165;-70
2022/08/30 08:09:36;;;;;;;5.78;3.78;;;21.30;91.80;;;;;;5078175;28;20062;-71
2022/08/30 08:12:06;;;;;;;4.35;3.90;;;21.40;91.60;;;;;;5073928;28;20032;-70
2022/08/30 08:14:33;;;;;;;5.53;4.75;;;21.40;91.10;;;;;;5075756;28;20024;-70
2022/08/30 08:16:59;;;;;;;3.78;3.45;;;21.40;91.00;;;;;;5075015;28;20047;-70
2022/08/30 08:19:25;;;;;;;4.95;3.63;;;21.30;91.00;;;;;;5081451;28;20131;-70
2022/08/30 08:21:55;;;;;;;4.05;3.75;;;21.20;91.20;;;;;;5080064;28;20119;-70
2022/08/30 08:24:22;;;;;;;5.85;5.05;;;21.10;91.20;;;;;;5077573;28;20036;-70
2022/08/30 08:26:48;;;;;;;6.53;4.88;;;21.10;91.00;;;;;;5073721;28;20016;-70
2022/08/30 08:29:14;;;;;;;4.88;4.38;;;21.10;90.80;;;;;;5074067;28;20124;-70
2022/08/30 08:31:40;;;;;;;6.30;5.32;;;21.10;91.00;;;;;;5075232;28;20642;-70
2022/08/30 08:34:07;;;;;;;7.90;5.85;;;21.10;91.10;;;;;;5070892;28;20446;-70
2022/08/30 08:36:34;;;;;;;9.20;6.45;;;21.10;91.00;;;;;;5075956;28;20036;-70
2022/08/30 08:39:01;;;;;;;8.98;6.78;;;21.30;90.50;;;;;;5076527;28;20025;-71
2022/08/30 08:41:55;;;;;;;10.45;7.70;;;21.40;90.10;;;;;;5079116;28;20032;-70
2022/08/30 08:44:39;;;;;;;9.10;6.65;;;21.40;89.60;;;;;;5077266;28;20119;-70
2022/08/30 08:47:11;;;;;;;7.30;6.28;;;21.50;90.20;;;;;;5073660;28;20113;-69
2022/08/30 08:49:39;;;;;;;5.53;4.75;;;21.60;90.10;;;;;;5079515;28;20040;-70
2022/08/30 09:05:57;;;;;;;3.00;2.65;;;22.20;86.30;;;;;;4938350;28;20070;-70
2022/08/30 09:08:23;;;;;;;3.22;2.30;;;22.10;85.70;;;;;;4926506;29;20488;-70
2022/08/30 09:11:03;;;;;;;2.33;2.10;;;22.00;84.70;;;;;;4919995;28;20184;-70
2022/08/30 09:13:29;;;;;;;2.75;2.50;;;22.00;85.20;;;;;;4919265;29;20066;-70
2022/08/30 09:15:56;;;;;;;4.72;2.83;;;21.90;86.00;;;;;;4918217;28;20057;-70
2022/08/30 09:18:46;;;;;;;3.05;2.40;;;21.90;85.80;;;;;;4926040;28;20435;-70
2022/08/30 09:21:18;;;;;;;2.38;2.17;;;21.80;85.90;;;;;;4926151;28;20036;-70
2022/08/30 09:23:57;;;;;;;3.10;2.80;;;22.00;87.50;;;;;;4924667;29;20031;-70
2022/08/30 09:26:29;;;;;;;2.50;2.30;;;22.20;87.00;;;;;;4921087;29;20043;-70
2022/08/30 09:28:55;;;;;;;4.07;2.58;;;22.30;86.60;;;;;;4919417;29;20027;-70
2022/08/30 09:31:44;;;;;;;2.42;2.13;;;22.50;85.80;;;;;;4921800;29;20475;-70
2022/08/30 09:34:17;;;;;;;4.03;3.00;;;22.60;84.60;;;;;;4916202;29;20040;-70
2022/08/30 09:36:48;;;;;;;6.95;4.15;;;22.70;84.20;;;;;;4921553;29;20044;-71
2022/08/30 09:39:36;;;;;;;5.32;4.15;;;22.70;82.50;;;;;;4923269;29;20078;-70
2022/08/30 09:42:17;;;;;;;5.05;4.53;;;22.50;83.60;;;;;;4919009;29;20032;-70
2022/08/30 09:44:43;;;;;;;5.07;4.32;;;22.40;84.50;;;;;;4919511;29;20054;-70
2022/08/30 09:47:26;;;;;;;5.72;4.90;;;22.20;85.10;;;;;;4919197;29;20107;-70
2022/08/30 09:50:12;;;;;;;5.05;4.55;;;22.10;85.70;;;;;;4919226;29;20062;-70
2022/08/30 09:52:53;;;;;;;5.47;4.63;;;22.00;85.70;;;;;;4918378;29;20885;-70
2022/08/30 09:55:35;;;;;;;5.40;4.90;;;22.10;86.20;;;;;;4920316;29;20153;-70
2022/08/30 09:58:10;;;;;;;5.03;4.53;;;22.20;86.70;;;;;;4921022;29;20109;-70
2022/08/30 10:00:55;;;;;;;4.78;4.28;;;22.40;85.80;;;;;;4922375;28;20039;-70
2022/08/30 10:03:43;;;;;;;4.47;3.88;;;22.40;82.60;;;;;;4920811;29;20054;-70
2022/08/30 10:06:25;;;;;;;4.18;3.78;;;22.40;81.70;;;;;;4917704;29;20040;-70
2022/08/30 10:09:09;;;;;;;4.50;4.03;;;22.40;81.20;;;;;;4920998;29;20039;-70
2022/08/30 10:11:39;;;;;;;5.72;4.50;;;22.40;81.60;;;;;;4918294;29;20027;-70
2022/08/30 10:14:23;;;;;;;9.95;4.60;;;22.40;82.30;;;;;;4918641;29;20035;-70
2022/08/30 10:16:58;;;;;;;5.10;4.60;;;22.60;83.70;;;;;;4924775;28;20770;-70
2022/08/30 10:19:59;;;;;;;4.65;4.25;;;22.80;84.10;;;;;;4922535;29;20040;-70
2022/08/30 10:22:51;;;;;;;5.20;4.68;;;23.00;82.60;;;;;;4919501;29;20063;-70
2022/08/30 10:25:21;;;;;;;7.63;4.20;;;23.20;81.10;;;;;;4909956;29;20067;-71
2022/08/30 10:27:55;;;;;;;4.18;3.80;;;23.30;77.20;;;;;;4917796;29;20031;-70
2022/08/30 10:30:22;;;;;;;3.88;3.53;;;23.40;80.20;;;;;;4917586;29;20046;-70
2022/08/30 10:32:54;;;;;;;6.82;4.10;;;23.40;77.40;;;;;;4921379;29;20063;-70
2022/08/30 10:35:27;;;;;;;4.38;3.72;;;23.30;78.10;;;;;;4923337;29;20035;-71
2022/08/30 10:38:01;;;;;;;3.05;2.85;;;23.20;78.50;;;;;;4934742;29;20047;-71
2022/08/30 10:43:39;;;;;;;3.40;3.10;;;22.90;79.20;;;;;;4920436;29;20043;-70
2022/08/30 10:46:13;;;;;;;3.20;2.90;;;23.00;79.00;;;;;;4915802;29;20048;-70
2022/08/30 10:48:43;;;;;;;3.33;3.03;;;22.90;74.80;;;;;;4918242;29;20027;-70
2022/08/30 10:51:15;;;;;;;3.67;2.78;;;22.90;79.20;;;;;;4923137;29;20403;-70
2022/08/30 10:53:49;;;;;;;4.18;2.45;;;22.90;75.60;;;;;;4922491;29;20115;-70
2022/08/30 10:56:20;;;;;;;2.55;2.35;;;22.90;75.70;;;;;;4920663;29;20036;-71
2022/08/30 10:58:47;;;;;;;3.50;2.55;;;22.90;74.00;;;;;;4919504;29;20038;-70
2022/08/30 11:01:30;;;;;;;3.38;2.42;;;23.00;74.30;;;;;;4919344;29;20040;-71
2022/08/30 11:04:17;;;;;;;2.95;2.60;;;23.00;74.80;;;;;;4920182;29;20044;-71
2022/08/30 11:06:56;;;;;;;4.32;2.42;;;23.10;74.80;;;;;;4932464;29;20039;-71
2022/08/30 11:09:30;;;;;;;2.67;2.45;;;23.10;76.00;;;;;;4930631;29;20507;-71
2022/08/30 11:12:06;;;;;;;2.50;2.22;;;23.20;69.90;;;;;;4926990;29;20032;-71
2022/08/30 11:14:32;;;;;;;2.38;2.17;;;23.30;72.80;;;;;;4927042;29;20036;-71
2022/08/30 11:17:00;;;;;;;2.40;2.20;;;23.40;71.50;;;;;;4924785;29;20035;-71
2022/08/30 11:19:37;;;;;;;2.22;2.03;;;23.30;72.20;;;;;;4924791;28;20090;-71
2022/08/30 11:22:13;;;;;;;2.08;1.88;;;23.40;72.90;;;;;;4921227;29;20114;-71
2022/08/30 11:25:04;;;;;;;2.13;1.98;;;23.50;73.50;;;;;;4920393;29;20497;-71
2022/08/30 11:27:38;;;;;;;4.60;1.88;;;23.50;69.20;;;;;;4920451;29;20042;-71
2022/08/30 11:30:23;;;;;;;2.55;2.05;;;23.70;71.60;;;;;;4924249;29;20035;-71
2022/08/30 11:33:00;;;;;;;2.30;2.05;;;23.70;68.90;;;;;;4926224;29;20046;-71
2022/08/30 11:35:51;;;;;;;2.20;2.00;;;23.80;71.60;;;;;;4922052;29;20028;-71
2022/08/30 11:38:26;;;;;;;3.58;2.35;;;23.70;69.30;;;;;;4922408;29;20527;-71
2022/08/30 11:41:11;;;;;;;2.08;1.88;;;23.60;67.40;;;;;;4920729;29;20114;-71
2022/08/30 11:43:38;;;;;;;1.83;1.73;;;23.50;70.00;;;;;;4920748;29;20551;-71
2022/08/30 11:46:26;;;;;;;2.10;1.90;;;23.50;70.60;;;;;;4917753;29;20095;-71
2022/08/30 11:49:11;;;;;;;2.05;1.60;;;23.40;70.60;;;;;;4923941;29;20114;-71
2022/08/30 11:51:59;;;;;;;1.85;1.70;;;23.40;70.70;;;;;;4924946;29;20737;-71
2022/08/30 11:54:58;;;;;;;3.80;2.20;;;23.40;70.90;;;;;;4924675;29;20488;-71
2022/08/30 11:57:37;;;;;;;2.65;1.70;;;23.40;70.50;;;;;;4923446;29;20032;-71
2022/08/30 12:00:31;;;;;;;2.03;1.70;;;23.30;68.80;;;;;;4920300;29;20063;-71
2022/08/30 12:03:02;;;;;;;4.43;2.63;;;23.20;70.50;;;;;;4924625;29;20059;-71
2022/08/30 12:05:37;;;;;;;2.47;2.28;;;23.10;69.40;;;;;;4915947;29;20127;-71
2022/08/30 12:08:08;;;;;;;2.70;2.28;;;23.10;70.50;;;;;;4923867;29;20031;-71
2022/08/30 12:10:41;;;;;;;2.03;1.88;;;23.00;69.60;;;;;;4925864;29;20120;-71
2022/08/30 12:13:07;;;;;;;2.65;2.25;;;22.90;68.30;;;;;;4923229;29;20516;-72
2022/08/30 12:15:54;;;;;;;3.25;2.08;;;22.90;68.70;;;;;;4925802;29;20460;-71
2022/08/30 12:18:29;;;;;;;2.22;2.00;;;22.90;67.60;;;;;;4921643;29;20047;-71
2022/08/30 12:21:08;;;;;;;2.50;2.20;;;23.00;64.90;;;;;;4919969;29;20035;-71
2022/08/30 12:23:39;;;;;;;1.90;1.75;;;23.10;67.50;;;;;;4921347;29;20406;-71
2022/08/30 12:26:18;;;;;;;2.03;1.73;;;23.20;68.20;;;;;;4921493;29;20126;-71
2022/08/30 12:28:47;;;;;;;1.67;1.58;;;23.30;67.80;;;;;;4926498;29;20107;-71
2022/08/30 12:31:17;;;;;;;2.05;1.83;;;23.30;65.70;;;;;;4922992;29;20032;-71
2022/08/30 12:33:57;;;;;;;2.20;2.00;;;23.50;66.90;;;;;;4923180;29;20043;-71
2022/08/30 12:36:38;;;;;;;2.65;1.90;;;23.70;65.80;;;;;;4921968;29;20712;-72
2022/08/30 12:39:18;;;;;;;2.30;2.10;;;23.80;64.70;;;;;;4918055;29;20055;-71
2022/08/30 12:41:45;;;;;;;3.05;1.70;;;23.90;65.50;;;;;;4918813;29;20032;-71
2022/08/30 12:44:25;;;;;;;2.10;1.88;;;24.10;66.40;;;;;;4920018;29;20786;-71
2022/08/30 12:46:56;;;;;;;3.83;2.40;;;24.30;65.40;;;;;;4924697;28;20103;-71
2022/08/30 12:49:25;;;;;;;2.65;2.00;;;24.30;63.50;;;;;;4923608;29;20126;-72
2022/08/30 12:51:52;;;;;;;1.80;1.70;;;24.40;63.10;;;;;;4923051;29;20027;-71
2022/08/30 12:54:26;;;;;;;1.70;1.60;;;24.40;63.30;;;;;;4921566;29;20206;-71
2022/08/30 12:56:57;;;;;;;2.33;1.45;;;24.40;64.20;;;;;;4920245;29;20086;-71
2022/08/30 12:59:41;;;;;;;1.67;1.45;;;24.40;64.40;;;;;;4920311;29;20702;-71
2022/08/30 13:02:41;;;;;;;2.58;1.40;;;24.40;64.90;;;;;;4917001;29;20523;-71
2022/08/30 13:05:29;;;;;;;1.45;1.27;;;24.40;64.90;;;;;;4923306;29;20591;-71
2022/08/30 13:08:07;;;;;;;1.58;1.40;;;24.40;66.20;;;;;;4922235;29;20126;-71
2022/08/30 13:10:33;;;;;;;1.60;1.20;;;24.30;66.70;;;;;;4923742;29;20379;-71
2022/08/30 13:13:02;;;;;;;1.15;1.05;;;24.30;66.80;;;;;;4920722;29;20543;-71
2022/08/30 13:15:34;;;;;;;1.10;1.00;;;24.30;66.30;;;;;;4921006;29;20758;-71
2022/08/30 13:18:19;;;;;;;1.17;0.95;;;24.30;65.70;;;;;;4917495;29;20127;-71
2022/08/30 13:20:46;;;;;;;1.20;1.00;;;24.20;66.20;;;;;;4919028;29;20049;-71
2022/08/30 13:23:22;;;;;;;1.65;1.20;;;24.20;66.80;;;;;;4924066;29;20039;-71